Yass Linton Hostel, New South Wales

1:09 AM EST on August 02, 2014 (GMT +1000)
Urban environment (INEWSOUT380) Elev 1709 ft | 34.85 °S, 148.91 °E | Change Station

Current weather conditions updated 2 seconds ago

Clear
Clear
37.2 °F
Feels Like 30 °F
N
9.8
Wind Variable Wind from West
Gusts 13.6 mph

Today is forecast to be Cooler than yesterday.

Today
High -- | Low -- °F
--% Chance of Precip.
Yesterday
High -- | Low -- °F
Precip. -- in
6:58 AM 5:23 PM
Waxing Crescent, 27% visible
Pressure 30.01 in
Visibility 6.2 miles
Clouds
Windchill 30 °F
Dew Point 28 °F
Humidity 70%
Rainfall 0.00 in
Snow Depth Not available.
UV Not available.
Pollen Not available.
Air Quality Not available.
Flu Activity Not available.
METAR YSCB 011430Z AUTO 30013KT 9999 // NCD 02/M02 Q1016

More Conditions Fewer Conditions

Pressure 30.01 in
Visibility 6.2 miles
Clouds
Windchill 30 °F
Dew Point 28 °F
Humidity 70%
Rainfall 0.00 in
Snow Depth Not available.
UV Not available.
Pollen Not available.
Air Quality Not available.
Flu Activity Not available.
METAR YSCB 011430Z AUTO 30013KT 9999 // NCD 02/M02 Q1016

More Conditions Fewer Conditions

10-Day Weather Forecast

Almanac

Astronomy

Aug. 02, 2014 Rise Set
Actual Time 6:58 AM EST 5:23 PM EST
Civil Twilight 6:31 AM EST 5:50 PM EST
Nautical Twilight 6:01 AM EST 6:20 PM EST
Astronomical Twilight 5:31 AM EST 6:50 PM EST
Moon 10:02 AM EST (8/2) 11:09 PM EST (8/2)
Length of Visible Light 11h 18m
Length of Day
10h 25m
Tomorrow will be 1m 36s longer.
Waxing Crescent, 27% of the Moon is Illuminated
Aug 1
Waxing Crescent
Aug 3
First Quarter
Aug 10
Full
Aug 17
Last Quarter
Aug 25
New

Yesterday's Extremes

Country Highs Country Lows

Community

WunderPhotos

Upload Photos

1,739,602 photos uploaded!

Nearby

Snow Depth

Not available.

Earthquake Activity

City Distance Mag. Time & Date
No recent earthquake activity has been reported nearby.
Minimum magnitude displayed is 2.5.

Coastal Water Temperatures

Place Temperature
No Stations Reporting

Nearby Weather Stations

Station Location Temp. Windchill Dew Point Humidity Wind Precip. Elev Updated Type
Urban environment, Yass 37.2 °F 30 °F 28 °F 70% West  at  9.8 mph 0.00 in / hr 1709 ft 1:09 AM EST Rapid Fire
Merryville, Australia, Murrumbateman 34.7 °F 31 °F 27 °F 73% SSW  at  4.3 mph 0.00 in / hr 1916 ft 1:09 AM EST Rapid Fire
Jerrawa, Jerrawa 37.0 °F 34 °F 34 °F 87% West  at  4.0 mph 0.00 in / hr 1865 ft 1:09 AM EST Rapid Fire
Murrumbateman, Murrumbateman 36.3 °F 36 °F 33 °F 88% ESE  at  0.0 mph 0.00 in / hr 1935 ft 1:09 AM EST Rapid Fire
Burrinjuck Dam, Burrinjuck 40.3 °F 40 °F 27 °F 58% North  at  0.0 mph 0.00 in / hr 1293 ft 1:09 AM EST Rapid Fire

Show More Stations Show Fewer Stations